sensor_id;sensor_type;location;lat;lon;timestamp;P1;durP1;ratioP1;P2;durP2;ratioP2
21786;SDS011;11055;50.870;4.316;2022-12-07T00:01:41;23.10;;;14.80;;
21786;SDS011;11055;50.870;4.316;2022-12-07T00:04:10;17.05;;;14.60;;
21786;SDS011;11055;50.870;4.316;2022-12-07T00:06:39;17.88;;;13.35;;
21786;SDS011;11055;50.870;4.316;2022-12-07T00:09:06;22.27;;;14.18;;
21786;SDS011;11055;50.870;4.316;2022-12-07T00:11:34;17.48;;;13.40;;
21786;SDS011;11055;50.870;4.316;2022-12-07T00:14:01;15.38;;;12.77;;
21786;SDS011;11055;50.870;4.316;2022-12-07T00:16:30;22.23;;;13.88;;
21786;SDS011;11055;50.870;4.316;2022-12-07T00:18:57;19.23;;;13.90;;
21786;SDS011;11055;50.870;4.316;2022-12-07T00:21:27;16.52;;;13.88;;
21786;SDS011;11055;50.870;4.316;2022-12-07T00:23:54;21.05;;;14.00;;
21786;SDS011;11055;50.870;4.316;2022-12-07T00:26:22;23.02;;;14.27;;
21786;SDS011;11055;50.870;4.316;2022-12-07T00:28:50;17.80;;;14.85;;
21786;SDS011;11055;50.870;4.316;2022-12-07T00:31:17;18.67;;;13.30;;
21786;SDS011;11055;50.870;4.316;2022-12-07T00:33:44;16.98;;;14.07;;
21786;SDS011;11055;50.870;4.316;2022-12-07T00:36:12;19.77;;;14.27;;
21786;SDS011;11055;50.870;4.316;2022-12-07T00:38:39;17.25;;;13.50;;
21786;SDS011;11055;50.870;4.316;2022-12-07T00:41:06;18.40;;;14.05;;
21786;SDS011;11055;50.870;4.316;2022-12-07T00:43:36;19.60;;;13.95;;
21786;SDS011;11055;50.870;4.316;2022-12-07T00:46:01;17.23;;;13.60;;
21786;SDS011;11055;50.870;4.316;2022-12-07T00:48:27;17.63;;;13.45;;
21786;SDS011;11055;50.870;4.316;2022-12-07T00:50:53;17.73;;;13.13;;
21786;SDS011;11055;50.870;4.316;2022-12-07T00:53:19;17.27;;;13.25;;
21786;SDS011;11055;50.870;4.316;2022-12-07T00:55:45;20.00;;;13.45;;
21786;SDS011;11055;50.870;4.316;2022-12-07T00:58:11;19.48;;;14.32;;
21786;SDS011;11055;50.870;4.316;2022-12-07T01:00:37;19.48;;;14.07;;
21786;SDS011;11055;50.870;4.316;2022-12-07T01:03:05;21.45;;;14.25;;
21786;SDS011;11055;50.870;4.316;2022-12-07T01:05:32;21.45;;;14.43;;
21786;SDS011;11055;50.870;4.316;2022-12-07T01:07:58;20.98;;;14.13;;
21786;SDS011;11055;50.870;4.316;2022-12-07T01:10:25;20.33;;;13.95;;
21786;SDS011;11055;50.870;4.316;2022-12-07T01:12:51;20.00;;;14.48;;
21786;SDS011;11055;50.870;4.316;2022-12-07T01:15:17;20.30;;;14.88;;
21786;SDS011;11055;50.870;4.316;2022-12-07T01:17:42;18.42;;;13.52;;
21786;SDS011;11055;50.870;4.316;2022-12-07T01:20:08;19.63;;;13.73;;
21786;SDS011;11055;50.870;4.316;2022-12-07T01:22:38;17.75;;;13.30;;
21786;SDS011;11055;50.870;4.316;2022-12-07T01:25:05;16.60;;;12.93;;
21786;SDS011;11055;50.870;4.316;2022-12-07T01:27:32;15.70;;;13.52;;
21786;SDS011;11055;50.870;4.316;2022-12-07T01:29:59;19.10;;;13.77;;
21786;SDS011;11055;50.870;4.316;2022-12-07T01:32:25;18.08;;;13.27;;
21786;SDS011;11055;50.870;4.316;2022-12-07T01:34:51;17.60;;;13.57;;
21786;SDS011;11055;50.870;4.316;2022-12-07T01:37:17;16.30;;;12.73;;
21786;SDS011;11055;50.870;4.316;2022-12-07T01:39:43;17.52;;;12.90;;
21786;SDS011;11055;50.870;4.316;2022-12-07T01:42:11;15.93;;;13.02;;
21786;SDS011;11055;50.870;4.316;2022-12-07T01:47:41;20.70;;;13.65;;
21786;SDS011;11055;50.870;4.316;2022-12-07T01:50:08;17.35;;;14.43;;
21786;SDS011;11055;50.870;4.316;2022-12-07T01:52:34;19.35;;;13.77;;
21786;SDS011;11055;50.870;4.316;2022-12-07T01:55:04;18.42;;;14.80;;
21786;SDS011;11055;50.870;4.316;2022-12-07T01:57:34;20.33;;;14.40;;
21786;SDS011;11055;50.870;4.316;2022-12-07T02:00:02;20.02;;;14.80;;
21786;SDS011;11055;50.870;4.316;2022-12-07T02:02:31;17.63;;;14.00;;
21786;SDS011;11055;50.870;4.316;2022-12-07T02:05:00;17.75;;;13.55;;
21786;SDS011;11055;50.870;4.316;2022-12-07T02:07:27;17.17;;;14.02;;
21786;SDS011;11055;50.870;4.316;2022-12-07T02:09:54;15.80;;;12.73;;
21786;SDS011;11055;50.870;4.316;2022-12-07T02:12:20;16.58;;;14.05;;
21786;SDS011;11055;50.870;4.316;2022-12-07T02:14:47;19.25;;;14.02;;
21786;SDS011;11055;50.870;4.316;2022-12-07T02:17:15;17.08;;;13.32;;
21786;SDS011;11055;50.870;4.316;2022-12-07T02:22:31;19.35;;;15.35;;
21786;SDS011;11055;50.870;4.316;2022-12-07T02:27:46;19.73;;;15.15;;
21786;SDS011;11055;50.870;4.316;2022-12-07T02:30:27;17.45;;;14.15;;
21786;SDS011;11055;50.870;4.316;2022-12-07T02:38:14;19.35;;;13.43;;
21786;SDS011;11055;50.870;4.316;2022-12-07T02:43:44;21.42;;;13.82;;
21786;SDS011;11055;50.870;4.316;2022-12-07T02:46:17;20.75;;;13.15;;
21786;SDS011;11055;50.870;4.316;2022-12-07T02:48:47;17.52;;;13.30;;
21786;SDS011;11055;50.870;4.316;2022-12-07T02:51:14;19.30;;;14.15;;
21786;SDS011;11055;50.870;4.316;2022-12-07T02:53:43;16.63;;;13.30;;
21786;SDS011;11055;50.870;4.316;2022-12-07T03:06:58;18.98;;;13.27;;
21786;SDS011;11055;50.870;4.316;2022-12-07T03:12:03;16.67;;;11.20;;
21786;SDS011;11055;50.870;4.316;2022-12-07T03:14:31;15.20;;;11.80;;
21786;SDS011;11055;50.870;4.316;2022-12-07T03:17:08;18.27;;;11.90;;
21786;SDS011;11055;50.870;4.316;2022-12-07T03:19:41;18.40;;;11.48;;
21786;SDS011;11055;50.870;4.316;2022-12-07T03:22:08;14.15;;;11.13;;
21786;SDS011;11055;50.870;4.316;2022-12-07T03:24:47;15.98;;;11.30;;
21786;SDS011;11055;50.870;4.316;2022-12-07T03:27:21;15.75;;;11.05;;
21786;SDS011;11055;50.870;4.316;2022-12-07T03:29:57;16.80;;;11.60;;
21786;SDS011;11055;50.870;4.316;2022-12-07T03:32:30;13.30;;;10.88;;
21786;SDS011;11055;50.870;4.316;2022-12-07T03:35:08;16.70;;;12.13;;
21786;SDS011;11055;50.870;4.316;2022-12-07T03:37:36;15.43;;;11.32;;
21786;SDS011;11055;50.870;4.316;2022-12-07T03:42:36;15.07;;;12.75;;
21786;SDS011;11055;50.870;4.316;2022-12-07T03:45:02;15.35;;;10.77;;
21786;SDS011;11055;50.870;4.316;2022-12-07T03:47:30;15.88;;;12.23;;
21786;SDS011;11055;50.870;4.316;2022-12-07T03:50:11;15.13;;;11.32;;
21786;SDS011;11055;50.870;4.316;2022-12-07T03:52:47;17.83;;;11.00;;
21786;SDS011;11055;50.870;4.316;2022-12-07T03:55:26;12.85;;;10.50;;
21786;SDS011;11055;50.870;4.316;2022-12-07T03:57:56;14.88;;;11.10;;
21786;SDS011;11055;50.870;4.316;2022-12-07T04:00:26;14.50;;;11.10;;
21786;SDS011;11055;50.870;4.316;2022-12-07T04:02:52;14.60;;;10.18;;
21786;SDS011;11055;50.870;4.316;2022-12-07T04:05:18;14.82;;;10.75;;
21786;SDS011;11055;50.870;4.316;2022-12-07T04:07:44;14.60;;;10.27;;
21786;SDS011;11055;50.870;4.316;2022-12-07T04:10:10;13.43;;;11.15;;
21786;SDS011;11055;50.870;4.316;2022-12-07T04:12:36;14.27;;;11.02;;
21786;SDS011;11055;50.870;4.316;2022-12-07T04:15:02;30.42;;;19.88;;
21786;SDS011;11055;50.870;4.316;2022-12-07T04:17:29;15.75;;;10.80;;
21786;SDS011;11055;50.870;4.316;2022-12-07T04:19:54;13.60;;;10.30;;
21786;SDS011;11055;50.870;4.316;2022-12-07T04:22:20;15.07;;;11.57;;
21786;SDS011;11055;50.870;4.316;2022-12-07T04:24:46;21.60;;;11.60;;
21786;SDS011;11055;50.870;4.316;2022-12-07T04:27:11;15.57;;;11.80;;
21786;SDS011;11055;50.870;4.316;2022-12-07T04:29:37;16.02;;;11.48;;
21786;SDS011;11055;50.870;4.316;2022-12-07T04:32:03;18.50;;;12.13;;
21786;SDS011;11055;50.870;4.316;2022-12-07T04:34:28;15.70;;;11.65;;
21786;SDS011;11055;50.870;4.316;2022-12-07T04:36:55;15.30;;;11.60;;
21786;SDS011;11055;50.870;4.316;2022-12-07T04:39:25;17.67;;;11.95;;
21786;SDS011;11055;50.870;4.316;2022-12-07T04:41:53;18.30;;;11.35;;
21786;SDS011;11055;50.870;4.316;2022-12-07T04:44:19;17.65;;;11.25;;
21786;SDS011;11055;50.870;4.316;2022-12-07T04:46:45;15.93;;;10.52;;
21786;SDS011;11055;50.870;4.316;2022-12-07T04:49:12;15.95;;;10.38;;
21786;SDS011;11055;50.870;4.316;2022-12-07T04:51:39;12.60;;;10.43;;
21786;SDS011;11055;50.870;4.316;2022-12-07T04:54:05;17.50;;;11.45;;
21786;SDS011;11055;50.870;4.316;2022-12-07T04:56:31;19.10;;;14.55;;
21786;SDS011;11055;50.870;4.316;2022-12-07T04:58:57;16.05;;;12.02;;
21786;SDS011;11055;50.870;4.316;2022-12-07T05:01:23;15.40;;;11.73;;
21786;SDS011;11055;50.870;4.316;2022-12-07T05:03:49;18.90;;;11.23;;
21786;SDS011;11055;50.870;4.316;2022-12-07T05:06:15;19.48;;;13.55;;
21786;SDS011;11055;50.870;4.316;2022-12-07T05:08:41;18.40;;;12.13;;
21786;SDS011;11055;50.870;4.316;2022-12-07T05:11:08;17.35;;;11.30;;
21786;SDS011;11055;50.870;4.316;2022-12-07T05:13:34;21.23;;;13.98;;
21786;SDS011;11055;50.870;4.316;2022-12-07T05:16:01;17.10;;;12.50;;
21786;SDS011;11055;50.870;4.316;2022-12-07T05:18:27;24.73;;;12.63;;
21786;SDS011;11055;50.870;4.316;2022-12-07T05:20:53;16.38;;;11.10;;
21786;SDS011;11055;50.870;4.316;2022-12-07T05:23:19;13.90;;;11.00;;
21786;SDS011;11055;50.870;4.316;2022-12-07T05:25:44;15.20;;;10.43;;
21786;SDS011;11055;50.870;4.316;2022-12-07T05:28:11;19.73;;;10.38;;
21786;SDS011;11055;50.870;4.316;2022-12-07T05:30:37;13.68;;;9.98;;
21786;SDS011;11055;50.870;4.316;2022-12-07T05:33:02;16.00;;;10.43;;
21786;SDS011;11055;50.870;4.316;2022-12-07T05:35:28;14.65;;;10.98;;
21786;SDS011;11055;50.870;4.316;2022-12-07T05:37:54;16.63;;;11.57;;
21786;SDS011;11055;50.870;4.316;2022-12-07T05:40:22;18.40;;;11.98;;
21786;SDS011;11055;50.870;4.316;2022-12-07T05:42:47;14.77;;;11.50;;
21786;SDS011;11055;50.870;4.316;2022-12-07T05:45:13;15.60;;;11.10;;
21786;SDS011;11055;50.870;4.316;2022-12-07T05:47:39;20.75;;;11.85;;
21786;SDS011;11055;50.870;4.316;2022-12-07T05:50:05;16.27;;;12.43;;
21786;SDS011;11055;50.870;4.316;2022-12-07T05:52:31;19.38;;;12.15;;
21786;SDS011;11055;50.870;4.316;2022-12-07T05:54:57;19.15;;;10.75;;
21786;SDS011;11055;50.870;4.316;2022-12-07T05:57:22;15.32;;;11.13;;
21786;SDS011;11055;50.870;4.316;2022-12-07T05:59:48;14.07;;;11.60;;
21786;SDS011;11055;50.870;4.316;2022-12-07T06:02:14;15.55;;;11.68;;
21786;SDS011;11055;50.870;4.316;2022-12-07T06:04:42;17.17;;;11.77;;
21786;SDS011;11055;50.870;4.316;2022-12-07T06:07:10;19.50;;;11.88;;
21786;SDS011;11055;50.870;4.316;2022-12-07T06:09:37;19.70;;;11.43;;
21786;SDS011;11055;50.870;4.316;2022-12-07T06:12:03;19.15;;;12.15;;
21786;SDS011;11055;50.870;4.316;2022-12-07T06:14:47;16.63;;;10.77;;
21786;SDS011;11055;50.870;4.316;2022-12-07T06:17:13;16.67;;;11.05;;
21786;SDS011;11055;50.870;4.316;2022-12-07T06:19:39;15.07;;;10.32;;
21786;SDS011;11055;50.870;4.316;2022-12-07T06:22:06;13.13;;;10.07;;
21786;SDS011;11055;50.870;4.316;2022-12-07T06:24:32;15.98;;;10.32;;
21786;SDS011;11055;50.870;4.316;2022-12-07T06:26:58;17.50;;;10.18;;
21786;SDS011;11055;50.870;4.316;2022-12-07T06:29:24;15.52;;;11.07;;
21786;SDS011;11055;50.870;4.316;2022-12-07T06:31:50;17.35;;;10.75;;
21786;SDS011;11055;50.870;4.316;2022-12-07T06:34:17;16.63;;;11.15;;
21786;SDS011;11055;50.870;4.316;2022-12-07T06:36:45;17.55;;;11.27;;
21786;SDS011;11055;50.870;4.316;2022-12-07T06:41:41;19.65;;;14.40;;
21786;SDS011;11055;50.870;4.316;2022-12-07T06:44:07;16.10;;;10.15;;
21786;SDS011;11055;50.870;4.316;2022-12-07T06:46:33;10.75;;;9.65;;
21786;SDS011;11055;50.870;4.316;2022-12-07T06:49:00;19.15;;;10.60;;
21786;SDS011;11055;50.870;4.316;2022-12-07T06:51:26;15.02;;;10.30;;
21786;SDS011;11055;50.870;4.316;2022-12-07T06:53:52;12.27;;;10.15;;
21786;SDS011;11055;50.870;4.316;2022-12-07T06:56:18;18.80;;;10.23;;
21786;SDS011;11055;50.870;4.316;2022-12-07T06:58:44;13.35;;;9.45;;
21786;SDS011;11055;50.870;4.316;2022-12-07T07:01:13;21.23;;;10.52;;
21786;SDS011;11055;50.870;4.316;2022-12-07T07:03:40;16.15;;;10.30;;
21786;SDS011;11055;50.870;4.316;2022-12-07T07:06:06;21.30;;;14.93;;
21786;SDS011;11055;50.870;4.316;2022-12-07T07:08:33;13.75;;;10.85;;
21786;SDS011;11055;50.870;4.316;2022-12-07T07:11:00;22.83;;;10.63;;
21786;SDS011;11055;50.870;4.316;2022-12-07T07:13:26;13.88;;;11.73;;
21786;SDS011;11055;50.870;4.316;2022-12-07T07:15:52;14.98;;;11.43;;
21786;SDS011;11055;50.870;4.316;2022-12-07T07:18:19;13.95;;;11.05;;
21786;SDS011;11055;50.870;4.316;2022-12-07T07:20:44;15.85;;;12.32;;
21786;SDS011;11055;50.870;4.316;2022-12-07T07:23:10;15.85;;;12.15;;
21786;SDS011;11055;50.870;4.316;2022-12-07T07:25:36;15.35;;;11.88;;
21786;SDS011;11055;50.870;4.316;2022-12-07T07:28:02;19.13;;;12.90;;
21786;SDS011;11055;50.870;4.316;2022-12-07T07:30:28;19.20;;;12.60;;
21786;SDS011;11055;50.870;4.316;2022-12-07T07:33:00;15.48;;;11.15;;
21786;SDS011;11055;50.870;4.316;2022-12-07T07:35:27;16.63;;;12.20;;
21786;SDS011;11055;50.870;4.316;2022-12-07T07:37:54;20.13;;;12.10;;
21786;SDS011;11055;50.870;4.316;2022-12-07T07:40:20;18.77;;;14.02;;
21786;SDS011;11055;50.870;4.316;2022-12-07T07:42:56;18.05;;;13.88;;
21786;SDS011;11055;50.870;4.316;2022-12-07T07:45:23;18.88;;;11.73;;
21786;SDS011;11055;50.870;4.316;2022-12-07T07:47:50;16.40;;;9.48;;
21786;SDS011;11055;50.870;4.316;2022-12-07T07:50:16;15.10;;;10.15;;
21786;SDS011;11055;50.870;4.316;2022-12-07T07:52:42;15.70;;;10.10;;
21786;SDS011;11055;50.870;4.316;2022-12-07T07:55:08;14.50;;;11.05;;
21786;SDS011;11055;50.870;4.316;2022-12-07T07:57:35;20.35;;;13.63;;
21786;SDS011;11055;50.870;4.316;2022-12-07T08:00:12;16.48;;;11.55;;
21786;SDS011;11055;50.870;4.316;2022-12-07T08:02:39;16.27;;;11.82;;
21786;SDS011;11055;50.870;4.316;2022-12-07T08:05:07;18.52;;;11.20;;
21786;SDS011;11055;50.870;4.316;2022-12-07T08:07:33;17.05;;;11.73;;
21786;SDS011;11055;50.870;4.316;2022-12-07T08:09:59;17.80;;;12.00;;
21786;SDS011;11055;50.870;4.316;2022-12-07T08:12:25;12.07;;;9.85;;
21786;SDS011;11055;50.870;4.316;2022-12-07T08:14:50;12.90;;;11.15;;
21786;SDS011;11055;50.870;4.316;2022-12-07T08:17:16;17.67;;;11.68;;
21786;SDS011;11055;50.870;4.316;2022-12-07T08:19:42;15.45;;;13.23;;
21786;SDS011;11055;50.870;4.316;2022-12-07T08:22:07;18.40;;;12.93;;
21786;SDS011;11055;50.870;4.316;2022-12-07T08:24:34;17.77;;;12.95;;
21786;SDS011;11055;50.870;4.316;2022-12-07T08:27:00;16.08;;;12.48;;
21786;SDS011;11055;50.870;4.316;2022-12-07T08:29:26;16.05;;;12.80;;
21786;SDS011;11055;50.870;4.316;2022-12-07T08:31:51;19.95;;;12.75;;
21786;SDS011;11055;50.870;4.316;2022-12-07T08:34:17;16.58;;;13.27;;
21786;SDS011;11055;50.870;4.316;2022-12-07T08:36:43;16.13;;;12.88;;
21786;SDS011;11055;50.870;4.316;2022-12-07T08:39:08;17.65;;;12.77;;
21786;SDS011;11055;50.870;4.316;2022-12-07T08:41:34;16.98;;;13.48;;
21786;SDS011;11055;50.870;4.316;2022-12-07T08:44:00;18.73;;;13.07;;
21786;SDS011;11055;50.870;4.316;2022-12-07T08:46:42;26.02;;;18.08;;
21786;SDS011;11055;50.870;4.316;2022-12-07T08:49:15;28.10;;;22.38;;
21786;SDS011;11055;50.870;4.316;2022-12-07T08:51:45;19.30;;;15.48;;
21786;SDS011;11055;50.870;4.316;2022-12-07T08:54:11;18.75;;;14.35;;
21786;SDS011;11055;50.870;4.316;2022-12-07T08:56:40;22.38;;;17.02;;
21786;SDS011;11055;50.870;4.316;2022-12-07T08:59:06;19.55;;;14.77;;
21786;SDS011;11055;50.870;4.316;2022-12-07T09:01:32;18.33;;;16.35;;
21786;SDS011;11055;50.870;4.316;2022-12-07T09:03:58;13.90;;;12.18;;
21786;SDS011;11055;50.870;4.316;2022-12-07T09:06:24;19.45;;;12.60;;
21786;SDS011;11055;50.870;4.316;2022-12-07T09:08:50;16.02;;;11.52;;
21786;SDS011;11055;50.870;4.316;2022-12-07T09:11:19;21.77;;;15.65;;
21786;SDS011;11055;50.870;4.316;2022-12-07T09:13:44;18.25;;;12.63;;
21786;SDS011;11055;50.870;4.316;2022-12-07T09:16:10;18.88;;;11.80;;
21786;SDS011;11055;50.870;4.316;2022-12-07T09:18:36;16.13;;;10.02;;
21786;SDS011;11055;50.870;4.316;2022-12-07T09:21:03;16.42;;;10.18;;
21786;SDS011;11055;50.870;4.316;2022-12-07T09:23:29;15.75;;;11.02;;
21786;SDS011;11055;50.870;4.316;2022-12-07T09:25:54;15.93;;;10.00;;
21786;SDS011;11055;50.870;4.316;2022-12-07T09:28:23;14.13;;;9.43;;
21786;SDS011;11055;50.870;4.316;2022-12-07T09:30:49;12.77;;;9.45;;
21786;SDS011;11055;50.870;4.316;2022-12-07T09:33:15;16.30;;;8.68;;
21786;SDS011;11055;50.870;4.316;2022-12-07T09:35:47;12.32;;;8.15;;
21786;SDS011;11055;50.870;4.316;2022-12-07T09:38:14;13.40;;;9.88;;
21786;SDS011;11055;50.870;4.316;2022-12-07T09:40:41;12.43;;;8.77;;
21786;SDS011;11055;50.870;4.316;2022-12-07T09:43:15;17.00;;;11.75;;
21786;SDS011;11055;50.870;4.316;2022-12-07T09:45:43;11.88;;;9.07;;
21786;SDS011;11055;50.870;4.316;2022-12-07T09:48:30;16.63;;;9.13;;
21786;SDS011;11055;50.870;4.316;2022-12-07T09:51:02;16.88;;;9.07;;
21786;SDS011;11055;50.870;4.316;2022-12-07T09:53:36;15.52;;;9.90;;
21786;SDS011;11055;50.870;4.316;2022-12-07T09:56:03;15.20;;;10.43;;
21786;SDS011;11055;50.870;4.316;2022-12-07T09:58:29;17.95;;;12.27;;
21786;SDS011;11055;50.870;4.316;2022-12-07T10:01:19;16.17;;;10.63;;
21786;SDS011;11055;50.870;4.316;2022-12-07T10:03:48;18.60;;;10.00;;
21786;SDS011;11055;50.870;4.316;2022-12-07T10:06:19;18.02;;;12.07;;
21786;SDS011;11055;50.870;4.316;2022-12-07T10:08:46;12.93;;;10.55;;
21786;SDS011;11055;50.870;4.316;2022-12-07T10:11:12;13.75;;;9.45;;
21786;SDS011;11055;50.870;4.316;2022-12-07T10:13:47;11.23;;;8.57;;
21786;SDS011;11055;50.870;4.316;2022-12-07T10:18:49;13.27;;;7.88;;
21786;SDS011;11055;50.870;4.316;2022-12-07T10:21:25;17.70;;;11.45;;
21786;SDS011;11055;50.870;4.316;2022-12-07T10:26:32;11.77;;;7.53;;
21786;SDS011;11055;50.870;4.316;2022-12-07T10:29:21;15.35;;;7.03;;
21786;SDS011;11055;50.870;4.316;2022-12-07T10:31:56;13.57;;;7.10;;
21786;SDS011;11055;50.870;4.316;2022-12-07T10:34:29;9.32;;;7.45;;
21786;SDS011;11055;50.870;4.316;2022-12-07T10:39:42;15.10;;;9.52;;
21786;SDS011;11055;50.870;4.316;2022-12-07T10:42:20;15.75;;;9.45;;
21786;SDS011;11055;50.870;4.316;2022-12-07T10:45:12;13.65;;;8.27;;
21786;SDS011;11055;50.870;4.316;2022-12-07T10:47:58;13.63;;;7.55;;
21786;SDS011;11055;50.870;4.316;2022-12-07T10:50:47;22.83;;;13.45;;
21786;SDS011;11055;50.870;4.316;2022-12-07T10:56:30;27.02;;;13.95;;
21786;SDS011;11055;50.870;4.316;2022-12-07T10:59:20;21.08;;;10.45;;
21786;SDS011;11055;50.870;4.316;2022-12-07T11:18:16;13.65;;;7.45;;
21786;SDS011;11055;50.870;4.316;2022-12-07T11:23:52;16.55;;;9.82;;
21786;SDS011;11055;50.870;4.316;2022-12-07T11:31:29;12.60;;;7.47;;
21786;SDS011;11055;50.870;4.316;2022-12-07T11:34:11;12.85;;;6.80;;
21786;SDS011;11055;50.870;4.316;2022-12-07T11:36:49;10.93;;;6.38;;
21786;SDS011;11055;50.870;4.316;2022-12-07T11:41:48;9.98;;;6.68;;
21786;SDS011;11055;50.870;4.316;2022-12-07T11:47:09;10.27;;;6.97;;
21786;SDS011;11055;50.870;4.316;2022-12-07T11:49:47;12.95;;;7.20;;
21786;SDS011;11055;50.870;4.316;2022-12-07T11:52:25;9.70;;;6.07;;
21786;SDS011;11055;50.870;4.316;2022-12-07T11:54:52;9.63;;;5.50;;
21786;SDS011;11055;50.870;4.316;2022-12-07T11:57:36;9.07;;;5.00;;
21786;SDS011;11055;50.870;4.316;2022-12-07T12:00:15;8.30;;;4.40;;
21786;SDS011;11055;50.870;4.316;2022-12-07T12:02:58;14.90;;;5.63;;
21786;SDS011;11055;50.870;4.316;2022-12-07T12:05:30;9.55;;;4.38;;
21786;SDS011;11055;50.870;4.316;2022-12-07T12:11:03;9.68;;;4.75;;
21786;SDS011;11055;50.870;4.316;2022-12-07T12:24:42;4.95;;;3.03;;
21786;SDS011;11055;50.870;4.316;2022-12-07T12:27:14;4.65;;;2.53;;
21786;SDS011;11055;50.870;4.316;2022-12-07T12:29:50;7.13;;;2.88;;
21786;SDS011;11055;50.870;4.316;2022-12-07T12:32:24;10.15;;;3.20;;
21786;SDS011;11055;50.870;4.316;2022-12-07T12:37:54;9.10;;;2.97;;
21786;SDS011;11055;50.870;4.316;2022-12-07T12:42:50;10.63;;;3.05;;
21786;SDS011;11055;50.870;4.316;2022-12-07T12:47:53;6.82;;;3.33;;
21786;SDS011;11055;50.870;4.316;2022-12-07T12:50:35;5.95;;;2.92;;
21786;SDS011;11055;50.870;4.316;2022-12-07T12:53:12;8.75;;;3.63;;
21786;SDS011;11055;50.870;4.316;2022-12-07T12:58:28;9.57;;;3.55;;
21786;SDS011;11055;50.870;4.316;2022-12-07T13:03:55;8.52;;;3.10;;
21786;SDS011;11055;50.870;4.316;2022-12-07T13:08:51;6.55;;;4.40;;
21786;SDS011;11055;50.870;4.316;2022-12-07T13:11:20;6.53;;;2.72;;
21786;SDS011;11055;50.870;4.316;2022-12-07T13:18:41;10.23;;;4.82;;
21786;SDS011;11055;50.870;4.316;2022-12-07T13:26:21;8.23;;;3.60;;
21786;SDS011;11055;50.870;4.316;2022-12-07T13:34:26;6.32;;;2.33;;
21786;SDS011;11055;50.870;4.316;2022-12-07T13:36:54;6.80;;;2.50;;
21786;SDS011;11055;50.870;4.316;2022-12-07T13:39:22;5.80;;;2.08;;
21786;SDS011;11055;50.870;4.316;2022-12-07T13:41:50;11.18;;;4.75;;
21786;SDS011;11055;50.870;4.316;2022-12-07T13:44:26;6.65;;;4.15;;
21786;SDS011;11055;50.870;4.316;2022-12-07T13:47:05;11.18;;;4.53;;
21786;SDS011;11055;50.870;4.316;2022-12-07T13:49:36;8.18;;;3.13;;
21786;SDS011;11055;50.870;4.316;2022-12-07T13:52:13;10.50;;;3.10;;
21786;SDS011;11055;50.870;4.316;2022-12-07T13:54:47;8.32;;;3.60;;
21786;SDS011;11055;50.870;4.316;2022-12-07T13:57:34;7.10;;;2.85;;
21786;SDS011;11055;50.870;4.316;2022-12-07T14:00:01;8.10;;;4.55;;
21786;SDS011;11055;50.870;4.316;2022-12-07T14:02:31;6.65;;;3.55;;
21786;SDS011;11055;50.870;4.316;2022-12-07T14:05:33;8.88;;;4.53;;
21786;SDS011;11055;50.870;4.316;2022-12-07T14:07:53;7.18;;;2.92;;
21786;SDS011;11055;50.870;4.316;2022-12-07T14:12:54;6.38;;;2.95;;
21786;SDS011;11055;50.870;4.316;2022-12-07T14:15:21;7.45;;;2.45;;
21786;SDS011;11055;50.870;4.316;2022-12-07T14:17:59;5.15;;;2.08;;
21786;SDS011;11055;50.870;4.316;2022-12-07T14:23:00;5.22;;;2.53;;
21786;SDS011;11055;50.870;4.316;2022-12-07T14:25:43;6.53;;;3.83;;
21786;SDS011;11055;50.870;4.316;2022-12-07T14:28:30;5.30;;;2.55;;
21786;SDS011;11055;50.870;4.316;2022-12-07T14:30:58;5.72;;;3.55;;
21786;SDS011;11055;50.870;4.316;2022-12-07T14:33:25;3.58;;;1.42;;
21786;SDS011;11055;50.870;4.316;2022-12-07T14:35:51;4.10;;;1.85;;
21786;SDS011;11055;50.870;4.316;2022-12-07T14:38:23;8.10;;;2.90;;
21786;SDS011;11055;50.870;4.316;2022-12-07T14:40:50;10.48;;;3.38;;
21786;SDS011;11055;50.870;4.316;2022-12-07T14:43:17;4.53;;;2.70;;
21786;SDS011;11055;50.870;4.316;2022-12-07T14:45:43;7.47;;;4.80;;
21786;SDS011;11055;50.870;4.316;2022-12-07T14:48:12;11.43;;;8.95;;
21786;SDS011;11055;50.870;4.316;2022-12-07T14:50:41;8.73;;;4.18;;
21786;SDS011;11055;50.870;4.316;2022-12-07T14:53:17;9.52;;;4.78;;
21786;SDS011;11055;50.870;4.316;2022-12-07T14:55:54;7.55;;;4.70;;
21786;SDS011;11055;50.870;4.316;2022-12-07T14:58:20;9.02;;;3.28;;
21786;SDS011;11055;50.870;4.316;2022-12-07T15:00:45;6.85;;;3.75;;
21786;SDS011;11055;50.870;4.316;2022-12-07T15:03:12;4.45;;;2.35;;
21786;SDS011;11055;50.870;4.316;2022-12-07T15:05:38;4.32;;;2.67;;
21786;SDS011;11055;50.870;4.316;2022-12-07T15:08:04;5.75;;;2.63;;
21786;SDS011;11055;50.870;4.316;2022-12-07T15:10:32;3.67;;;2.40;;
21786;SDS011;11055;50.870;4.316;2022-12-07T15:12:59;9.98;;;4.35;;
21786;SDS011;11055;50.870;4.316;2022-12-07T15:15:45;4.47;;;3.55;;
21786;SDS011;11055;50.870;4.316;2022-12-07T15:18:15;6.28;;;3.78;;
21786;SDS011;11055;50.870;4.316;2022-12-07T15:20:41;5.70;;;2.92;;
21786;SDS011;11055;50.870;4.316;2022-12-07T15:23:07;4.13;;;2.30;;
21786;SDS011;11055;50.870;4.316;2022-12-07T15:25:33;3.83;;;2.33;;
21786;SDS011;11055;50.870;4.316;2022-12-07T15:27:58;6.13;;;4.20;;
21786;SDS011;11055;50.870;4.316;2022-12-07T15:30:24;6.28;;;5.00;;
21786;SDS011;11055;50.870;4.316;2022-12-07T15:32:50;4.05;;;2.38;;
21786;SDS011;11055;50.870;4.316;2022-12-07T15:35:17;7.00;;;4.05;;
21786;SDS011;11055;50.870;4.316;2022-12-07T15:37:42;2.97;;;2.15;;
21786;SDS011;11055;50.870;4.316;2022-12-07T15:40:08;7.57;;;4.70;;
21786;SDS011;11055;50.870;4.316;2022-12-07T15:42:35;13.90;;;7.15;;
21786;SDS011;11055;50.870;4.316;2022-12-07T15:45:01;8.85;;;6.13;;
21786;SDS011;11055;50.870;4.316;2022-12-07T15:47:34;13.98;;;8.80;;
21786;SDS011;11055;50.870;4.316;2022-12-07T15:50:02;6.57;;;3.95;;
21786;SDS011;11055;50.870;4.316;2022-12-07T15:52:29;9.45;;;4.50;;
21786;SDS011;11055;50.870;4.316;2022-12-07T15:54:55;16.42;;;8.68;;
21786;SDS011;11055;50.870;4.316;2022-12-07T15:57:20;6.55;;;4.45;;
21786;SDS011;11055;50.870;4.316;2022-12-07T15:59:46;13.55;;;6.63;;
21786;SDS011;11055;50.870;4.316;2022-12-07T16:02:12;19.13;;;7.85;;
21786;SDS011;11055;50.870;4.316;2022-12-07T16:04:38;7.20;;;4.47;;
21786;SDS011;11055;50.870;4.316;2022-12-07T16:07:03;9.80;;;5.78;;
21786;SDS011;11055;50.870;4.316;2022-12-07T16:09:29;10.82;;;7.22;;
21786;SDS011;11055;50.870;4.316;2022-12-07T16:11:55;9.85;;;6.05;;
21786;SDS011;11055;50.870;4.316;2022-12-07T16:14:20;10.88;;;7.15;;
21786;SDS011;11055;50.870;4.316;2022-12-07T16:16:46;18.00;;;14.80;;
21786;SDS011;11055;50.870;4.316;2022-12-07T16:19:13;14.35;;;10.93;;
21786;SDS011;11055;50.870;4.316;2022-12-07T16:21:38;9.20;;;7.25;;
21786;SDS011;11055;50.870;4.316;2022-12-07T16:24:04;9.98;;;6.30;;
21786;SDS011;11055;50.870;4.316;2022-12-07T16:26:30;15.65;;;9.73;;
21786;SDS011;11055;50.870;4.316;2022-12-07T16:28:56;13.02;;;9.32;;
21786;SDS011;11055;50.870;4.316;2022-12-07T16:31:26;11.57;;;6.60;;
21786;SDS011;11055;50.870;4.316;2022-12-07T16:33:53;11.02;;;6.78;;
21786;SDS011;11055;50.870;4.316;2022-12-07T16:36:21;11.32;;;9.02;;
21786;SDS011;11055;50.870;4.316;2022-12-07T16:38:49;9.65;;;6.30;;
21786;SDS011;11055;50.870;4.316;2022-12-07T16:41:15;11.27;;;7.03;;
21786;SDS011;11055;50.870;4.316;2022-12-07T16:43:40;12.85;;;7.07;;
21786;SDS011;11055;50.870;4.316;2022-12-07T16:46:06;12.50;;;6.30;;